Time;durP1;ratioP1;P1;durP2;ratioP2;P2;SDS_P1;SDS_P2;PMS_P1;PMS_P2;Temp;Humidity;BMP_temperature;BMP_pressure;BME280_temperature;BME280_humidity;BME280_pressure;Samples;Min_cycle;Max_cycle;Signal;HPM_P1;HPM_P2
2024/02/10 00:17:34;;;;;;;5.88;2.70;;;;;;;;;;5046269;28;20478;-72
2024/02/10 00:20:15;;;;;;;7.35;3.67;;;;;;;;;;5052692;28;20067;-72
2024/02/10 00:22:43;;;;;;;7.88;2.78;;;;;;;;;;5050011;28;20143;-69
2024/02/10 00:25:18;;;;;;;7.70;2.65;;;;;;;;;;5050591;28;20052;-69
2024/02/10 00:27:46;;;;;;;6.63;2.67;;;;;;;;;;5046731;28;20053;-70
2024/02/10 00:30:16;;;;;;;6.97;3.40;;;;;;;;;;5048664;28;20498;-69
2024/02/10 00:32:51;;;;;;;7.03;3.30;;;;;;;;;;5035333;28;20060;-63
2024/02/10 00:35:22;;;;;;;4.25;2.47;;;;;;;;;;5051404;28;20056;-63
2024/02/10 00:37:56;;;;;;;6.10;2.90;;;;;;;;;;5044116;28;20889;-62
2024/02/10 00:40:24;;;;;;;4.28;2.83;;;;;;;;;;5049596;28;20060;-63
2024/02/10 00:42:54;;;;;;;;;;;;;;;;;;5054747;28;20426;-72
2024/02/10 00:45:28;;;;;;;4.05;2.30;;;;;;;;;;5048958;28;19928;-60
2024/02/10 00:47:55;;;;;;;;;;;;;;;;;;5048494;28;20049;-59
2024/02/10 00:50:23;;;;;;;6.57;2.55;;;;;;;;;;5048191;28;19967;-60
2024/02/10 00:53:03;;;;;;;4.80;2.63;;;;;;;;;;5052711;28;20049;-60
2024/02/10 00:55:30;;;;;;;6.43;3.35;;;;;;;;;;5050146;28;20585;-60
2024/02/10 00:58:06;;;;;;;4.63;2.70;;;;;;;;;;5031567;28;20063;-61
2024/02/10 01:00:36;;;;;;;5.20;2.72;;;;;;;;;;5050214;28;20458;-70
2024/02/10 01:03:08;;;;;;;3.40;2.47;;;;;;;;;;5049055;28;20061;-72
2024/02/10 01:05:42;;;;;;;5.95;2.22;;;;;;;;;;5033230;28;20052;-72
2024/02/10 01:08:10;;;;;;;8.85;3.05;;;;;;;;;;5047650;28;20140;-72
2024/02/10 01:10:44;;;;;;;4.32;2.70;;;;;;;;;;5051146;28;20318;-52
2024/02/10 01:13:11;;;;;;;5.70;2.83;;;;;;;;;;5050941;28;20400;-60
2024/02/10 01:15:45;;;;;;;6.32;2.95;;;;;;;;;;5048695;28;20052;-62
2024/02/10 01:18:19;;;;;;;;;;;;;;;;;;5045121;28;20059;-62
2024/02/10 01:20:53;;;;;;;6.13;2.55;;;;;;;;;;5046582;28;19958;-62
2024/02/10 01:23:20;;;;;;;6.30;2.58;;;;;;;;;;5049205;28;20056;-62
2024/02/10 01:25:50;;;;;;;7.65;3.50;;;;;;;;;;5052701;28;20518;-62
2024/02/10 01:28:24;;;;;;;6.65;2.88;;;;;;;;;;5054740;28;20057;-54
2024/02/10 01:30:52;;;;;;;;;;;;;;;;;;5054260;28;20080;-53
2024/02/10 01:33:25;;;;;;;6.30;3.30;;;;;;;;;;5049685;28;20425;-50
2024/02/10 01:35:52;;;;;;;7.00;3.03;;;;;;;;;;5048408;28;20048;-53
2024/02/10 01:38:20;;;;;;;10.88;3.20;;;;;;;;;;5044798;28;20408;-53
2024/02/10 01:40:54;;;;;;;6.35;2.97;;;;;;;;;;5049434;28;20573;-63
2024/02/10 01:43:22;;;;;;;5.85;2.83;;;;;;;;;;5053365;28;20519;-53
2024/02/10 01:45:56;;;;;;;8.05;3.22;;;;;;;;;;5050649;28;20374;-53
2024/02/10 01:48:23;;;;;;;4.80;2.90;;;;;;;;;;5049512;28;20133;-52
2024/02/10 01:50:50;;;;;;;;;;;;;;;;;;5047871;28;20094;-51
2024/02/10 01:53:24;;;;;;;8.60;3.17;;;;;;;;;;5050209;28;20375;-53
2024/02/10 01:55:51;;;;;;;;;;;;;;;;;;5051539;28;20553;-51
2024/02/10 01:58:25;;;;;;;10.13;3.35;;;;;;;;;;5052368;28;19928;-62
2024/02/10 02:00:53;;;;;;;6.50;3.30;;;;;;;;;;5048862;28;20523;-63
2024/02/10 02:03:23;;;;;;;4.25;2.22;;;;;;;;;;5049273;28;20057;-62
2024/02/10 02:05:56;;;;;;;5.30;2.80;;;;;;;;;;5047634;28;20485;-62
2024/02/10 02:08:26;;;;;;;6.00;3.33;;;;;;;;;;5055638;28;20057;-52
2024/02/10 02:11:00;;;;;;;4.47;2.88;;;;;;;;;;5048980;28;20474;-63
2024/02/10 02:13:29;;;;;;;5.90;3.08;;;;;;;;;;5054288;28;20145;-63
2024/02/10 02:16:17;;;;;;;7.97;4.03;;;;;;;;;;5056795;28;20064;-63
2024/02/10 02:18:51;;;;;;;4.43;2.90;;;;;;;;;;5031860;28;20044;-62
2024/02/10 02:21:27;;;;;;;8.00;3.38;;;;;;;;;;5031447;28;20061;-63
2024/02/10 02:23:54;;;;;;;8.43;3.42;;;;;;;;;;5032682;28;20916;-62
2024/02/10 02:26:29;;;;;;;7.68;3.90;;;;;;;;;;5032308;28;20485;-63
2024/02/10 02:28:56;;;;;;;;;;;;;;;;;;5033974;28;20060;-63
2024/02/10 02:31:23;;;;;;;9.35;3.80;;;;;;;;;;5036656;28;20411;-61
2024/02/10 02:33:59;;;;;;;4.50;2.17;;;;;;;;;;5035281;28;20210;-62
2024/02/10 02:36:26;;;;;;;7.80;3.80;;;;;;;;;;5031585;28;20061;-61
2024/02/10 02:38:54;;;;;;;7.18;3.78;;;;;;;;;;5030750;28;20100;-62
2024/02/10 02:41:27;;;;;;;13.40;3.90;;;;;;;;;;5031129;28;20443;-62
2024/02/10 02:43:54;;;;;;;;;;;;;;;;;;5034262;28;20049;-62
2024/02/10 02:46:28;;;;;;;8.52;3.85;;;;;;;;;;5036036;28;19928;-62
2024/02/10 02:48:56;;;;;;;7.47;3.55;;;;;;;;;;5032704;28;20084;-63
2024/02/10 02:51:24;;;;;;;;;;;;;;;;;;5033265;28;20474;-62
2024/02/10 02:53:57;;;;;;;9.02;3.72;;;;;;;;;;5034946;28;19929;-52
2024/02/10 02:56:25;;;;;;;9.85;4.13;;;;;;;;;;5035528;28;20054;-54
2024/02/10 02:58:59;;;;;;;7.22;3.90;;;;;;;;;;5032653;28;20045;-53
2024/02/10 03:01:26;;;;;;;;;;;;;;;;;;5037594;28;20569;-53
2024/02/10 03:04:00;;;;;;;6.30;3.58;;;;;;;;;;5032535;28;19921;-62
2024/02/10 03:06:28;;;;;;;9.77;4.70;;;;;;;;;;5031639;28;20133;-63
2024/02/10 03:08:55;;;;;;;7.20;3.88;;;;;;;;;;5033075;28;20054;-63
2024/02/10 03:11:29;;;;;;;6.82;2.83;;;;;;;;;;5029296;28;20331;-62
2024/02/10 03:13:59;;;;;;;;;;;;;;;;;;5030970;28;20557;-62
2024/02/10 03:16:45;;;;;;;9.15;3.83;;;;;;;;;;5038512;28;19932;-62
2024/02/10 03:19:19;;;;;;;8.68;3.65;;;;;;;;;;5055983;28;20052;-62
2024/02/10 03:21:53;;;;;;;8.95;4.25;;;;;;;;;;5047972;28;20444;-51
2024/02/10 03:24:22;;;;;;;5.80;2.97;;;;;;;;;;5052471;28;20149;-52
2024/02/10 03:26:50;;;;;;;11.55;4.80;;;;;;;;;;5052400;28;20052;-51
2024/02/10 03:29:24;;;;;;;8.55;4.03;;;;;;;;;;5048118;28;20509;-52
2024/02/10 03:31:51;;;;;;;9.75;3.80;;;;;;;;;;5052429;28;20053;-50
2024/02/10 03:34:25;;;;;;;10.65;4.28;;;;;;;;;;5056576;28;20447;-56
2024/02/10 03:36:53;;;;;;;11.52;4.07;;;;;;;;;;5048545;28;21299;-60
2024/02/10 03:39:20;;;;;;;8.25;3.97;;;;;;;;;;5052037;28;20060;-62
2024/02/10 03:41:54;;;;;;;6.28;3.67;;;;;;;;;;5050518;28;20056;-60
2024/02/10 03:44:22;;;;;;;;;;;;;;;;;;5049842;28;20146;-60
2024/02/10 03:46:57;;;;;;;13.35;4.10;;;;;;;;;;5052414;28;19986;-62
2024/02/10 03:49:24;;;;;;;8.50;4.03;;;;;;;;;;5052205;28;20055;-62
2024/02/10 03:51:52;;;;;;;7.68;3.78;;;;;;;;;;5051147;28;20106;-72
2024/02/10 03:54:25;;;;;;;12.02;4.55;;;;;;;;;;5051753;28;20049;-71
2024/02/10 03:56:52;;;;;;;;;;;;;;;;;;5050212;28;20056;-71
2024/02/10 03:59:26;;;;;;;8.15;4.28;;;;;;;;;;5050437;28;19928;-70
2024/02/10 04:01:55;;;;;;;;;;;;;;;;;;5047673;28;20517;-60
2024/02/10 04:04:26;;;;;;;12.27;3.60;;;;;;;;;;5053347;28;19954;-60
2024/02/10 04:06:59;;;;;;;7.88;3.50;;;;;;;;;;5050518;28;20072;-62
2024/02/10 04:09:26;;;;;;;8.77;4.03;;;;;;;;;;5051106;28;20052;-60
2024/02/10 04:11:55;;;;;;;9.75;4.15;;;;;;;;;;5047080;28;20201;-62
2024/02/10 04:14:29;;;;;;;6.05;3.58;;;;;;;;;;5048340;28;20474;-62
2024/02/10 04:16:57;;;;;;;8.07;3.97;;;;;;;;;;5050738;28;20052;-62
2024/02/10 04:19:32;;;;;;;6.70;3.10;;;;;;;;;;5052880;28;20049;-54
2024/02/10 04:22:00;;;;;;;7.15;3.28;;;;;;;;;;5049963;28;20424;-51
2024/02/10 04:24:27;;;;;;;7.15;4.05;;;;;;;;;;5051731;28;20121;-52
2024/02/10 04:27:01;;;;;;;8.90;4.15;;;;;;;;;;5048404;28;20110;-54
2024/02/10 04:29:28;;;;;;;;;;;;;;;;;;5055451;28;20083;-53
2024/02/10 04:32:03;;;;;;;8.48;4.07;;;;;;;;;;5054085;28;19982;-52
2024/02/10 04:34:31;;;;;;;9.13;4.10;;;;;;;;;;5050957;28;20044;-54
2024/02/10 04:36:59;;;;;;;9.63;4.32;;;;;;;;;;5049041;28;20118;-53
2024/02/10 04:39:34;;;;;;;9.57;4.55;;;;;;;;;;5051423;28;20048;-54
2024/02/10 04:42:05;;;;;;;7.43;3.90;;;;;;;;;;5048188;28;20057;-53
2024/02/10 04:44:32;;;;;;;10.63;4.28;;;;;;;;;;5048894;28;20787;-53
2024/02/10 04:47:06;;;;;;;8.23;3.97;;;;;;;;;;5054470;28;22255;-50
2024/02/10 04:49:36;;;;;;;4.45;2.70;;;;;;;;;;5054694;28;20102;-52
2024/02/10 04:52:04;;;;;;;5.13;2.75;;;;;;;;;;5035957;28;20056;-52
2024/02/10 04:54:38;;;;;;;10.73;4.18;;;;;;;;;;5049487;28;20060;-51
2024/02/10 04:57:12;;;;;;;7.28;3.92;;;;;;;;;;5051204;28;20076;-52
2024/02/10 04:59:39;;;;;;;;;;;;;;;;;;5049372;28;20163;-61
2024/02/10 05:02:07;;;;;;;8.55;4.20;;;;;;;;;;5052949;28;19942;-63
2024/02/10 05:04:43;;;;;;;10.63;4.63;;;;;;;;;;5050925;28;20063;-63
2024/02/10 05:07:15;;;;;;;9.57;4.65;;;;;;;;;;5050419;28;20064;-63
2024/02/10 05:09:48;;;;;;;8.20;3.97;;;;;;;;;;5048927;28;20457;-62
2024/02/10 05:12:15;;;;;;;7.90;4.47;;;;;;;;;;5046396;28;20492;-62
2024/02/10 05:14:43;;;;;;;;;;;;;;;;;;5050125;28;20064;-62
2024/02/10 05:17:30;;;;;;;9.20;3.80;;;;;;;;;;5032802;28;19931;-63
2024/02/10 05:20:10;;;;;;;7.88;4.18;;;;;;;;;;5030808;28;20049;-62
2024/02/10 05:22:46;;;;;;;7.97;4.13;;;;;;;;;;5031704;28;20254;-62
2024/02/10 05:25:21;;;;;;;8.40;4.10;;;;;;;;;;5031141;28;20467;-62
2024/02/10 05:28:00;;;;;;;5.38;3.22;;;;;;;;;;5025695;28;20455;-52
2024/02/10 05:30:28;;;;;;;5.72;3.38;;;;;;;;;;5033570;28;20052;-62
2024/02/10 05:32:56;;;;;;;6.65;3.97;;;;;;;;;;5024657;28;20144;-62
2024/02/10 05:35:31;;;;;;;7.18;3.40;;;;;;;;;;5035446;28;20053;-62
2024/02/10 05:38:00;;;;;;;6.72;4.05;;;;;;;;;;5013951;28;20500;-62
2024/02/10 05:40:33;;;;;;;10.00;3.78;;;;;;;;;;5031685;28;20056;-62
2024/02/10 05:43:04;;;;;;;7.88;3.58;;;;;;;;;;5029592;28;20294;-61
2024/02/10 05:45:33;;;;;;;6.93;4.30;;;;;;;;;;5033738;28;20504;-52
2024/02/10 05:48:07;;;;;;;8.15;3.55;;;;;;;;;;5028179;28;20144;-54
2024/02/10 05:50:36;;;;;;;8.25;4.45;;;;;;;;;;5031716;28;20427;-54
2024/02/10 05:53:11;;;;;;;9.32;4.03;;;;;;;;;;5029473;28;20148;-54
2024/02/10 05:55:38;;;;;;;7.07;4.38;;;;;;;;;;5036448;28;20568;-53
2024/02/10 05:58:06;;;;;;;;;;;;;;;;;;5021895;28;20435;-62
2024/02/10 06:00:44;;;;;;;6.55;4.22;;;;;;;;;;5033080;28;20022;-62
2024/02/10 06:03:11;;;;;;;11.13;4.25;;;;;;;;;;5032128;28;20160;-62
2024/02/10 06:05:45;;;;;;;8.38;4.60;;;;;;;;;;5034074;28;20504;-62
2024/02/10 06:08:12;;;;;;;;;;;;;;;;;;5033833;28;20045;-62
2024/02/10 06:10:41;;;;;;;7.82;3.65;;;;;;;;;;5030811;28;20182;-62
2024/02/10 06:13:15;;;;;;;9.02;4.50;;;;;;;;;;5034652;28;20053;-52
2024/02/10 06:15:44;;;;;;;9.50;4.95;;;;;;;;;;5035116;28;20081;-51
2024/02/10 06:18:30;;;;;;;9.07;4.38;;;;;;;;;;5046267;28;20114;-51
2024/02/10 06:20:59;;;;;;;9.45;4.22;;;;;;;;;;5051286;28;20127;-49
2024/02/10 06:23:33;;;;;;;9.48;4.43;;;;;;;;;;5053211;28;21607;-62
2024/02/10 06:26:00;;;;;;;7.25;3.97;;;;;;;;;;5053342;28;21359;-62
2024/02/10 06:28:29;;;;;;;;;;;;;;;;;;5048597;28;20075;-63
2024/02/10 06:31:02;;;;;;;7.93;4.60;;;;;;;;;;5051721;28;19928;-62
2024/02/10 06:33:29;;;;;;;;;;;;;;;;;;5052491;28;20575;-63
2024/02/10 06:35:58;;;;;;;7.50;3.83;;;;;;;;;;5053402;28;19982;-63
2024/02/10 06:38:32;;;;;;;13.02;4.43;;;;;;;;;;5050048;28;20439;-62
2024/02/10 06:41:00;;;;;;;11.57;5.20;;;;;;;;;;5053708;28;20060;-62
2024/02/10 06:43:28;;;;;;;11.20;4.78;;;;;;;;;;5053443;28;20087;-62
2024/02/10 06:46:05;;;;;;;9.48;5.20;;;;;;;;;;5049078;28;20061;-63
2024/02/10 06:48:33;;;;;;;10.55;4.45;;;;;;;;;;5047335;28;20071;-62
2024/02/10 06:51:00;;;;;;;;;;;;;;;;;;5048349;28;20048;-62
2024/02/10 06:53:35;;;;;;;8.10;4.97;;;;;;;;;;5052781;28;19928;-62
2024/02/10 06:56:02;;;;;;;9.25;4.40;;;;;;;;;;5058313;28;20056;-55
2024/02/10 06:58:38;;;;;;;8.02;4.25;;;;;;;;;;5052302;28;20445;-50
2024/02/10 07:01:06;;;;;;;10.10;4.97;;;;;;;;;;5050293;28;20766;-53
2024/02/10 07:03:35;;;;;;;11.57;4.93;;;;;;;;;;5049709;28;20788;-51
2024/02/10 07:06:11;;;;;;;8.73;4.97;;;;;;;;;;5053545;28;20147;-53
2024/02/10 07:08:40;;;;;;;10.98;5.35;;;;;;;;;;5050844;28;20217;-53
2024/02/10 07:11:14;;;;;;;12.23;5.25;;;;;;;;;;5056202;28;20048;-52
2024/02/10 07:13:41;;;;;;;;;;;;;;;;;;5050642;28;20400;-51
2024/02/10 07:16:15;;;;;;;11.15;5.18;;;;;;;;;;5051718;28;19921;-53
2024/02/10 07:18:50;;;;;;;;;;;;;;;;;;5050442;28;20067;-50
2024/02/10 07:21:24;;;;;;;11.43;5.28;;;;;;;;;;5056064;28;19924;-62
2024/02/10 07:23:52;;;;;;;9.25;4.82;;;;;;;;;;5054154;28;20420;-61
2024/02/10 07:26:20;;;;;;;;;;;;;;;;;;5060006;28;20312;-61
2024/02/10 07:28:55;;;;;;;10.57;4.78;;;;;;;;;;5055770;28;19928;-61
2024/02/10 07:31:24;;;;;;;10.13;5.10;;;;;;;;;;5052564;28;20060;-62
2024/02/10 07:33:58;;;;;;;9.20;4.43;;;;;;;;;;5056876;28;20048;-61
2024/02/10 07:36:34;;;;;;;9.33;5.03;;;;;;;;;;5047515;28;20487;-62
2024/02/10 07:39:07;;;;;;;10.30;4.93;;;;;;;;;;5048205;28;20061;-62
2024/02/10 07:41:35;;;;;;;9.48;4.28;;;;;;;;;;5055387;28;20068;-62
2024/02/10 07:44:03;;;;;;;10.77;4.80;;;;;;;;;;5057785;28;20515;-61
2024/02/10 07:46:37;;;;;;;10.63;5.03;;;;;;;;;;5050209;28;20055;-62
2024/02/10 07:49:06;;;;;;;13.60;4.63;;;;;;;;;;5049851;28;20060;-61
2024/02/10 07:51:33;;;;;;;9.13;4.77;;;;;;;;;;5051450;28;20287;-62
2024/02/10 07:54:07;;;;;;;9.37;4.13;;;;;;;;;;5051390;28;20056;-62
2024/02/10 07:56:38;;;;;;;;;;;;;;;;;;5056395;28;20495;-62
2024/02/10 07:59:11;;;;;;;9.67;4.10;;;;;;;;;;5056980;28;19924;-62
2024/02/10 08:01:38;;;;;;;10.80;4.73;;;;;;;;;;5043335;28;20056;-63
2024/02/10 08:04:09;;;;;;;12.50;5.30;;;;;;;;;;5054348;28;20048;-62
2024/02/10 08:06:45;;;;;;;9.57;5.03;;;;;;;;;;5045591;28;20091;-62
2024/02/10 08:09:12;;;;;;;8.63;4.80;;;;;;;;;;5052070;28;20045;-59
2024/02/10 08:11:46;;;;;;;14.40;4.73;;;;;;;;;;5049531;28;20994;-62
2024/02/10 08:14:17;;;;;;;;;;;;;;;;;;5058626;28;20049;-61
2024/02/10 08:17:04;;;;;;;9.80;4.70;;;;;;;;;;5049395;28;21180;-62
2024/02/10 08:19:37;;;;;;;8.23;5.00;;;;;;;;;;5049017;28;20059;-63
2024/02/10 08:22:13;;;;;;;9.45;4.53;;;;;;;;;;5050416;28;20052;-60
2024/02/10 08:24:43;;;;;;;12.07;5.13;;;;;;;;;;5049262;28;20040;-62
2024/02/10 08:27:34;;;;;;;9.98;4.45;;;;;;;;;;5051567;28;20121;-62
2024/02/10 08:30:29;;;;;;;10.30;4.55;;;;;;;;;;5052137;28;20088;-61
2024/02/10 08:33:20;;;;;;;7.78;4.18;;;;;;;;;;5046986;28;20056;-62
2024/02/10 08:36:10;;;;;;;6.77;3.83;;;;;;;;;;5049827;28;20654;-62
2024/02/10 08:38:58;;;;;;;12.55;5.20;;;;;;;;;;5049208;28;20774;-62
2024/02/10 08:41:50;;;;;;;9.07;4.70;;;;;;;;;;5052165;28;20067;-62
2024/02/10 08:44:38;;;;;;;7.20;3.77;;;;;;;;;;5053929;28;20156;-62
2024/02/10 08:47:31;;;;;;;6.63;3.90;;;;;;;;;;5052334;28;20040;-60
2024/02/10 08:50:19;;;;;;;13.47;4.87;;;;;;;;;;5052333;28;20051;-50
2024/02/10 08:53:14;;;;;;;10.60;4.75;;;;;;;;;;5050947;28;20056;-52
2024/02/10 08:56:10;;;;;;;5.30;2.93;;;;;;;;;;5053086;28;20048;-55
2024/02/10 08:58:53;;;;;;;9.10;4.78;;;;;;;;;;5046123;28;20053;-53
2024/02/10 09:01:48;;;;;;;6.68;3.80;;;;;;;;;;5053306;28;20057;-57
2024/02/10 09:04:34;;;;;;;7.95;4.15;;;;;;;;;;5050894;28;20504;-70
2024/02/10 09:07:29;;;;;;;8.25;4.10;;;;;;;;;;5050007;28;20099;-71
2024/02/10 09:10:16;;;;;;;10.45;5.07;;;;;;;;;;5047159;28;20056;-71
2024/02/10 09:13:12;;;;;;;7.63;4.45;;;;;;;;;;5048874;28;20056;-70
2024/02/10 09:15:59;;;;;;;12.43;4.25;;;;;;;;;;5049234;28;20056;-62
2024/02/10 09:19:02;;;;;;;10.30;4.55;;;;;;;;;;5053214;28;20056;-71
2024/02/10 09:21:55;;;;;;;6.30;3.78;;;;;;;;;;5053068;28;20072;-71
2024/02/10 09:24:43;;;;;;;7.35;3.95;;;;;;;;;;5052872;28;20586;-70
2024/02/10 09:27:30;;;;;;;8.40;4.33;;;;;;;;;;5052041;28;20067;-71
2024/02/10 09:30:25;;;;;;;8.90;4.72;;;;;;;;;;5053877;28;20473;-70
2024/02/10 09:33:26;;;;;;;5.78;3.70;;;;;;;;;;5053187;28;20053;-53
2024/02/10 09:36:26;;;;;;;7.32;3.83;;;;;;;;;;5054399;28;20048;-52
2024/02/10 09:39:18;;;;;;;9.32;4.63;;;;;;;;;;5055465;28;20112;-53
2024/02/10 09:42:20;;;;;;;24.53;5.40;;;;;;;;;;5055609;28;20542;-52
2024/02/10 09:45:09;;;;;;;9.18;4.50;;;;;;;;;;5054432;28;20053;-54
2024/02/10 09:48:03;;;;;;;7.67;4.47;;;;;;;;;;5050335;28;20061;-56
2024/02/10 09:50:51;;;;;;;9.88;4.53;;;;;;;;;;5053970;28;20052;-54
2024/02/10 09:53:45;;;;;;;7.47;4.00;;;;;;;;;;5052144;28;20061;-51
2024/02/10 09:56:38;;;;;;;10.20;4.73;;;;;;;;;;5055940;28;20419;-57
2024/02/10 09:59:32;;;;;;;6.88;3.40;;;;;;;;;;5052285;28;20044;-53
2024/02/10 10:02:20;;;;;;;10.25;4.20;;;;;;;;;;5051846;28;20155;-63
2024/02/10 10:05:13;;;;;;;8.48;4.47;;;;;;;;;;5047013;28;20057;-63
2024/02/10 10:08:01;;;;;;;7.22;3.97;;;;;;;;;;5052440;28;20048;-60
2024/02/10 10:10:54;;;;;;;8.25;4.68;;;;;;;;;;5054510;28;20057;-50
2024/02/10 10:13:48;;;;;;;8.48;4.20;;;;;;;;;;5052752;28;20469;-59
2024/02/10 10:16:36;;;;;;;9.52;4.68;;;;;;;;;;5049540;28;20049;-60
2024/02/10 10:19:36;;;;;;;9.07;4.50;;;;;;;;;;5052659;28;20048;-62
2024/02/10 10:22:23;;;;;;;10.75;4.70;;;;;;;;;;5047091;28;20053;-62
2024/02/10 10:25:17;;;;;;;10.05;4.53;;;;;;;;;;5051927;28;20511;-62
2024/02/10 10:28:05;;;;;;;11.07;4.55;;;;;;;;;;5049064;28;20415;-62
2024/02/10 10:30:59;;;;;;;8.68;4.82;;;;;;;;;;5051356;28;20059;-54
2024/02/10 10:33:51;;;;;;;10.15;4.32;;;;;;;;;;5048974;28;20052;-52
2024/02/10 10:36:45;;;;;;;9.60;4.80;;;;;;;;;;5050051;28;20041;-52
2024/02/10 10:39:37;;;;;;;9.30;4.20;;;;;;;;;;5050758;28;20044;-69
2024/02/10 10:42:31;;;;;;;8.55;4.35;;;;;;;;;;5052324;28;20052;-61
2024/02/10 10:45:19;;;;;;;10.75;3.78;;;;;;;;;;5052363;28;20053;-60
2024/02/10 10:48:13;;;;;;;9.43;4.82;;;;;;;;;;5052441;28;20061;-61
2024/02/10 10:51:03;;;;;;;9.82;4.15;;;;;;;;;;5053666;28;20084;-60
2024/02/10 10:53:55;;;;;;;10.02;4.45;;;;;;;;;;5053544;28;20095;-60
2024/02/10 10:56:49;;;;;;;8.25;4.68;;;;;;;;;;5054978;28;20053;-61
2024/02/10 10:59:37;;;;;;;10.63;5.00;;;;;;;;;;5054156;28;20134;-61
2024/02/10 11:02:32;;;;;;;8.40;5.30;;;;;;;;;;5055711;28;20045;-60
2024/02/10 11:05:19;;;;;;;12.18;5.28;;;;;;;;;;5051984;28;20061;-62
2024/02/10 11:08:25;;;;;;;12.43;4.72;;;;;;;;;;5053738;28;20464;-50
2024/02/10 11:11:12;;;;;;;8.07;4.60;;;;;;;;;;5050050;28;20063;-60
2024/02/10 11:14:11;;;;;;;11.77;5.80;;;;;;;;;;5045005;28;20057;-61
2024/02/10 11:16:58;;;;;;;10.60;4.20;;;;;;;;;;5051636;28;20063;-60
2024/02/10 11:20:07;;;;;;;10.52;5.25;;;;;;;;;;5048843;28;20057;-61
2024/02/10 11:22:57;;;;;;;12.73;4.95;;;;;;;;;;5048599;28;20048;-60
2024/02/10 11:25:56;;;;;;;8.77;5.03;;;;;;;;;;5051031;28;20095;-60
2024/02/10 11:28:42;;;;;;;11.82;5.60;;;;;;;;;;5045512;28;20084;-60
2024/02/10 11:31:39;;;;;;;10.63;5.10;;;;;;;;;;5052533;28;20072;-60
2024/02/10 11:34:25;;;;;;;11.10;4.57;;;;;;;;;;5051376;28;20598;-60
2024/02/10 11:37:19;;;;;;;8.15;4.63;;;;;;;;;;5050177;28;20131;-50
2024/02/10 11:40:10;;;;;;;13.30;5.30;;;;;;;;;;5050294;28;20415;-69
2024/02/10 11:43:01;;;;;;;10.82;5.32;;;;;;;;;;5050813;28;20605;-69
2024/02/10 11:45:49;;;;;;;9.18;5.10;;;;;;;;;;5050677;28;20068;-69
2024/02/10 11:48:42;;;;;;;7.68;5.03;;;;;;;;;;5051452;28;20057;-69
2024/02/10 11:51:31;;;;;;;8.85;4.97;;;;;;;;;;5038957;28;20053;-69
2024/02/10 11:54:26;;;;;;;8.55;4.43;;;;;;;;;;5054171;28;20279;-61
2024/02/10 11:57:12;;;;;;;10.45;5.15;;;;;;;;;;5051129;28;20703;-61
2024/02/10 12:00:07;;;;;;;10.93;4.57;;;;;;;;;;5046389;28;20052;-61
2024/02/10 12:02:54;;;;;;;9.90;4.97;;;;;;;;;;5034643;28;20052;-61
2024/02/10 12:05:47;;;;;;;12.60;5.55;;;;;;;;;;5046178;28;20052;-61
2024/02/10 12:08:35;;;;;;;9.80;5.00;;;;;;;;;;5049480;28;20187;-60
2024/02/10 12:11:28;;;;;;;12.73;5.68;;;;;;;;;;5046995;28;20056;-60
2024/02/10 12:14:16;;;;;;;11.10;5.47;;;;;;;;;;5048489;28;20056;-60
2024/02/10 12:17:09;;;;;;;14.88;5.60;;;;;;;;;;5046585;28;20052;-60
2024/02/10 12:20:12;;;;;;;14.45;5.40;;;;;;;;;;5050864;28;20055;-60
2024/02/10 12:22:57;;;;;;;8.77;5.00;;;;;;;;;;5045719;28;20137;-61
2024/02/10 12:25:51;;;;;;;10.13;5.78;;;;;;;;;;5045531;28;20144;-61
2024/02/10 12:28:40;;;;;;;10.80;4.72;;;;;;;;;;5045825;28;20126;-61
2024/02/10 12:31:33;;;;;;;10.82;5.00;;;;;;;;;;5048457;28;20511;-61
2024/02/10 12:34:20;;;;;;;11.32;5.13;;;;;;;;;;5048680;28;20143;-61
2024/02/10 12:37:13;;;;;;;8.57;5.07;;;;;;;;;;5047157;28;20055;-61
2024/02/10 12:40:01;;;;;;;11.82;5.72;;;;;;;;;;5044780;28;20052;-61
2024/02/10 12:42:54;;;;;;;10.98;4.97;;;;;;;;;;5044875;28;20052;-62
2024/02/10 12:45:47;;;;;;;11.90;5.25;;;;;;;;;;5048937;28;20055;-61
2024/02/10 12:48:38;;;;;;;11.88;5.88;;;;;;;;;;5054298;28;20137;-61
2024/02/10 12:51:26;;;;;;;12.65;5.75;;;;;;;;;;5048063;28;20663;-61
2024/02/10 12:54:20;;;;;;;10.77;5.70;;;;;;;;;;5050096;28;20048;-61
2024/02/10 12:57:13;;;;;;;11.80;5.97;;;;;;;;;;5050805;28;20052;-61
2024/02/10 13:00:18;;;;;;;12.68;6.15;;;;;;;;;;5048743;28;20052;-61
2024/02/10 13:02:56;;;;;;;10.25;5.75;;;;;;;;;;5048991;28;20463;-61
2024/02/10 13:05:54;;;;;;;11.55;5.65;;;;;;;;;;5051586;28;20586;-60
2024/02/10 13:08:40;;;;;;;14.27;5.57;;;;;;;;;;5049249;28;20508;-60
2024/02/10 13:11:33;;;;;;;12.48;5.78;;;;;;;;;;5052120;28;20060;-61
2024/02/10 13:14:27;;;;;;;13.23;5.95;;;;;;;;;;5048089;28;20052;-59
2024/02/10 13:17:35;;;;;;;12.95;5.60;;;;;;;;;;5049831;28;20057;-60
2024/02/10 13:20:28;;;;;;;14.70;5.97;;;;;;;;;;5030849;28;20072;-61
2024/02/10 13:23:22;;;;;;;14.15;5.38;;;;;;;;;;5028769;28;20053;-62
2024/02/10 13:26:12;;;;;;;14.70;6.43;;;;;;;;;;5030562;28;20053;-61
2024/02/10 13:29:03;;;;;;;12.00;6.50;;;;;;;;;;5028090;28;20053;-61
2024/02/10 13:31:50;;;;;;;12.48;6.43;;;;;;;;;;5030979;28;20057;-61
2024/02/10 13:34:45;;;;;;;16.42;5.95;;;;;;;;;;5029412;28;20507;-61
2024/02/10 14:00:34;;;;;;;13.50;6.72;;;;;;;;;;5032912;28;20118;-61
2024/02/10 14:03:32;;;;;;;13.30;6.25;;;;;;;;;;5025563;28;20076;-69
2024/02/10 14:06:14;;;;;;;18.33;6.60;;;;;;;;;;5035115;28;20053;-69
2024/02/10 14:09:11;;;;;;;15.50;6.50;;;;;;;;;;5035480;28;20063;-69
2024/02/10 14:11:55;;;;;;;11.77;6.05;;;;;;;;;;5031137;28;20053;-69
2024/02/10 14:14:46;;;;;;;10.32;5.97;;;;;;;;;;5028008;28;20057;-69
2024/02/10 14:17:35;;;;;;;12.15;6.25;;;;;;;;;;5033244;28;20455;-51
2024/02/10 14:20:37;;;;;;;12.18;6.20;;;;;;;;;;5044119;28;20064;-60
2024/02/10 14:23:24;;;;;;;12.63;6.70;;;;;;;;;;5050455;28;20073;-60
2024/02/10 14:26:28;;;;;;;15.60;6.22;;;;;;;;;;5051220;28;20053;-61
2024/02/10 14:29:31;;;;;;;15.00;6.60;;;;;;;;;;5054230;28;20048;-61
2024/02/10 14:32:09;;;;;;;13.50;6.37;;;;;;;;;;5053730;28;20058;-60
2024/02/10 14:37:46;;;;;;;9.02;5.38;;;;;;;;;;5051336;28;20135;-50
2024/02/10 14:40:36;;;;;;;12.75;6.47;;;;;;;;;;5048466;28;20323;-52
2024/02/10 14:43:05;;;;;;;14.90;6.43;;;;;;;;;;5054351;28;20053;-50
2024/02/10 14:45:34;;;;;;;17.63;6.90;;;;;;;;;;5055680;28;20052;-53
2024/02/10 14:48:07;;;;;;;15.10;6.55;;;;;;;;;;5053972;28;20060;-52
2024/02/10 14:50:35;;;;;;;13.13;6.47;;;;;;;;;;5041909;28;20161;-53
2024/02/10 14:53:10;;;;;;;12.93;6.18;;;;;;;;;;5048789;28;20064;-53
2024/02/10 14:55:38;;;;;;;15.68;6.55;;;;;;;;;;5052300;28;20048;-60
2024/02/10 14:58:07;;;;;;;9.95;4.80;;;;;;;;;;5056964;28;20062;-67
2024/02/10 15:00:41;;;;;;;16.00;6.60;;;;;;;;;;5053372;28;20071;-69
2024/02/10 15:03:09;;;;;;;15.25;7.32;;;;;;;;;;5054814;28;20056;-69
2024/02/10 15:05:41;;;;;;;11.50;6.18;;;;;;;;;;5046926;28;20060;-69
2024/02/10 15:08:35;;;;;;;14.77;6.63;;;;;;;;;;5047650;28;20154;-68
2024/02/10 15:11:24;;;;;;;12.00;6.05;;;;;;;;;;5051040;28;20084;-68
2024/02/10 15:14:19;;;;;;;13.45;5.13;;;;;;;;;;5046858;28;20161;-60
2024/02/10 15:17:13;;;;;;;11.77;6.30;;;;;;;;;;5045628;28;20102;-60
2024/02/10 15:20:05;;;;;;;14.43;6.55;;;;;;;;;;5041214;28;20041;-60
2024/02/10 15:22:52;;;;;;;14.00;5.85;;;;;;;;;;5045052;28;20057;-60
2024/02/10 15:25:50;;;;;;;15.20;6.15;;;;;;;;;;5047414;28;20313;-60
2024/02/10 15:28:35;;;;;;;12.07;6.13;;;;;;;;;;5046117;28;20052;-60
2024/02/10 15:31:27;;;;;;;16.20;5.75;;;;;;;;;;5047952;28;20485;-61
2024/02/10 15:34:15;;;;;;;14.50;6.70;;;;;;;;;;5047279;28;20440;-60
2024/02/10 15:37:23;;;;;;;14.63;6.93;;;;;;;;;;5045009;28;20507;-60
2024/02/10 15:40:20;;;;;;;15.10;6.25;;;;;;;;;;5049106;28;20058;-61
2024/02/10 15:43:05;;;;;;;11.90;6.53;;;;;;;;;;5048146;28;20767;-60
2024/02/10 15:45:51;;;;;;;11.95;6.05;;;;;;;;;;5048142;28;20976;-61
2024/02/10 15:48:45;;;;;;;13.50;6.45;;;;;;;;;;5049913;28;20556;-51
2024/02/10 15:51:36;;;;;;;15.30;6.47;;;;;;;;;;5050002;28;20530;-60
2024/02/10 15:54:27;;;;;;;15.48;6.60;;;;;;;;;;5049255;28;20106;-60
2024/02/10 15:57:21;;;;;;;15.18;6.80;;;;;;;;;;5051950;28;20052;-60
2024/02/10 16:00:13;;;;;;;15.05;7.47;;;;;;;;;;5045585;28;20126;-60
2024/02/10 16:03:02;;;;;;;14.40;6.95;;;;;;;;;;5045584;28;20049;-60
2024/02/10 16:05:50;;;;;;;15.23;6.90;;;;;;;;;;5047995;28;20071;-61
2024/02/10 16:08:46;;;;;;;15.27;7.38;;;;;;;;;;5045521;28;20098;-52
2024/02/10 16:11:39;;;;;;;12.27;6.43;;;;;;;;;;5048176;28;20434;-59
2024/02/10 16:14:30;;;;;;;15.85;7.30;;;;;;;;;;5047476;28;20102;-60
2024/02/10 16:17:23;;;;;;;13.60;6.43;;;;;;;;;;5044503;28;20154;-60
2024/02/10 16:20:21;;;;;;;14.20;6.97;;;;;;;;;;5045554;28;20896;-59
2024/02/10 16:23:12;;;;;;;17.15;6.70;;;;;;;;;;5042621;28;20079;-60
2024/02/10 16:25:59;;;;;;;15.85;7.05;;;;;;;;;;5048911;28;20507;-60
2024/02/10 16:28:52;;;;;;;16.85;7.20;;;;;;;;;;5045146;28;20557;-53
2024/02/10 16:31:49;;;;;;;14.93;7.07;;;;;;;;;;5044311;28;20690;-52
2024/02/10 16:34:52;;;;;;;13.63;7.28;;;;;;;;;;5044376;28;20052;-54
2024/02/10 16:37:38;;;;;;;15.35;7.07;;;;;;;;;;5045998;28;20067;-52
2024/02/10 16:40:35;;;;;;;14.85;7.07;;;;;;;;;;5048016;28;20095;-54
2024/02/10 16:43:26;;;;;;;11.10;6.28;;;;;;;;;;5046127;28;20049;-55
2024/02/10 16:46:16;;;;;;;16.60;7.88;;;;;;;;;;5048825;28;20538;-69